Time;durP1;ratioP1;P1;durP2;ratioP2;P2;SDS_P1;SDS_P2;PMS_P1;PMS_P2;Temp;Humidity;BMP_temperature;BMP_pressure;BME280_temperature;BME280_humidity;BME280_pressure;Samples;Min_cycle;Max_cycle;Signal;HPM_P1;HPM_P2
2022/07/17 00:01:13;;;;;;;4.03;1.23;;;;;;;13.27;60.63;101905.75;5013837;28;20202;-84
2022/07/17 00:03:40;;;;;;;2.47;0.97;;;;;;;13.20;60.99;101903.44;5018881;28;20228;-82
2022/07/17 00:06:08;;;;;;;4.67;1.50;;;;;;;13.16;61.22;101904.53;5023937;28;20686;-81
2022/07/17 00:08:35;;;;;;;4.27;1.73;;;;;;;13.12;61.62;101902.94;5020821;28;20220;-82
2022/07/17 00:11:01;;;;;;;2.97;1.30;;;;;;;13.11;61.82;101909.22;5015831;28;20217;-82
2022/07/17 00:13:28;;;;;;;5.43;1.30;;;;;;;13.07;61.41;101905.03;5017379;28;20234;-83
2022/07/17 00:15:55;;;;;;;2.80;0.80;;;;;;;13.01;61.77;101900.00;5013214;28;20230;-84
2022/07/17 00:18:21;;;;;;;5.17;1.70;;;;;;;12.95;61.11;101899.44;5018715;28;20221;-83
2022/07/17 00:20:48;;;;;;;4.20;1.70;;;;;;;12.88;61.68;101888.22;5009936;28;20294;-82
2022/07/17 00:23:17;;;;;;;4.27;1.33;;;;;;;12.82;61.99;101899.25;5012931;28;20229;-83
2022/07/17 00:25:44;;;;;;;4.27;1.47;;;;;;;12.79;62.33;101894.03;5003803;28;20216;-82
2022/07/17 00:28:11;;;;;;;6.10;1.50;;;;;;;12.75;62.43;101896.00;5005460;28;20741;-81
2022/07/17 00:30:38;;;;;;;6.73;1.80;;;;;;;12.70;62.63;101899.88;5010746;28;20203;-83
2022/07/17 00:33:05;;;;;;;5.53;1.90;;;;;;;12.64;62.83;101895.72;5026198;28;20288;-84
2022/07/17 00:35:31;;;;;;;5.80;1.40;;;;;;;12.62;63.35;101886.91;5015673;28;20204;-83
2022/07/17 00:37:58;;;;;;;2.67;1.50;;;;;;;12.62;63.59;101894.94;5018477;28;20205;-83
2022/07/17 00:40:26;;;;;;;4.43;1.47;;;;;;;12.61;63.47;101893.19;5025215;28;20217;-83
2022/07/17 00:42:53;;;;;;;3.77;1.63;;;;;;;12.58;63.56;101887.16;5017071;28;20223;-83
2022/07/17 00:45:24;;;;;;;3.70;1.20;;;;;;;12.56;63.76;101892.56;5032728;28;20213;-83
2022/07/17 00:47:54;;;;;;;2.97;1.30;;;;;;;12.54;63.67;101888.28;5014833;28;20195;-81
2022/07/17 00:50:21;;;;;;;4.17;1.70;;;;;;;12.53;63.87;101895.44;5025308;28;20206;-82
2022/07/17 00:52:48;;;;;;;4.27;1.30;;;;;;;12.50;63.86;101892.91;5015781;28;20289;-80
2022/07/17 00:55:15;;;;;;;4.47;1.47;;;;;;;12.47;64.06;101896.59;5015119;28;20199;-81
2022/07/17 00:57:46;;;;;;;4.97;1.60;;;;;;;12.43;64.53;101891.47;5014334;28;20207;-82
2022/07/17 01:00:13;;;;;;;1.93;1.10;;;;;;;12.38;64.02;101891.72;5018071;28;20209;-83
2022/07/17 01:02:40;;;;;;;3.50;1.60;;;;;;;12.35;64.38;101889.22;5016903;28;20219;-84
2022/07/17 01:05:07;;;;;;;4.30;1.50;;;;;;;12.32;64.41;101881.34;5016119;28;20209;-82
2022/07/17 01:07:34;;;;;;;3.97;1.53;;;;;;;12.29;64.17;101883.31;5014710;28;20215;-82
2022/07/17 01:10:00;;;;;;;3.13;1.33;;;;;;;12.25;64.26;101881.72;5001915;28;20203;-83
2022/07/17 01:12:28;;;;;;;3.20;1.30;;;;;;;12.21;64.24;101885.50;5015712;28;20725;-82
2022/07/17 01:14:56;;;;;;;2.73;1.37;;;;;;;12.18;64.44;101896.34;5013042;28;20223;-82
2022/07/17 01:17:23;;;;;;;3.37;1.57;;;;;;;12.13;64.28;101892.09;5015238;28;20207;-82
2022/07/17 01:19:50;;;;;;;3.33;1.30;;;;;;;12.11;64.82;101893.13;5018255;28;20200;-82
2022/07/17 01:22:18;;;;;;;5.73;1.70;;;;;;;12.09;64.40;101892.31;5014795;28;20651;-82
2022/07/17 01:24:44;;;;;;;3.37;1.23;;;;;;;12.05;64.47;101888.06;5017285;28;20561;-82
2022/07/17 01:27:11;;;;;;;5.10;1.40;;;;;;;12.01;64.39;101891.81;5008179;28;20227;-84
2022/07/17 01:29:38;;;;;;;3.77;1.50;;;;;;;11.96;64.56;101900.09;5014081;28;20205;-84
2022/07/17 01:32:05;;;;;;;3.13;1.50;;;;;;;11.93;64.55;101896.69;5004980;28;20205;-82
2022/07/17 01:34:32;;;;;;;2.43;1.90;;;;;;;11.90;64.74;101891.50;5013756;28;20314;-84
2022/07/17 01:36:59;;;;;;;2.83;1.23;;;;;;;11.87;64.48;101888.97;5013316;28;20656;-83
2022/07/17 01:42:07;;;;;;;4.97;1.37;;;;;;;11.73;64.13;101898.50;5012515;28;20204;-81
2022/07/17 01:44:34;;;;;;;4.10;1.20;;;;;;;11.66;64.27;101894.38;5013217;28;20199;-81
2022/07/17 01:47:00;;;;;;;6.03;1.87;;;;;;;11.63;64.63;101902.56;5007954;28;20209;-81
2022/07/17 01:49:27;;;;;;;3.50;1.57;;;;;;;11.60;64.69;101893.84;5013561;28;20211;-82
2022/07/17 01:51:53;;;;;;;2.70;1.30;;;;;;;11.58;65.01;101901.03;5013152;28;20217;-81
2022/07/17 01:54:20;;;;;;;4.60;1.40;;;;;;;11.56;65.12;101902.91;5014555;28;20242;-83
2022/07/17 01:56:48;;;;;;;2.63;1.10;;;;;;;11.54;65.33;101902.97;5011438;28;20688;-82
2022/07/17 01:59:14;;;;;;;2.80;1.13;;;;;;;11.52;65.33;101898.66;5008098;28;20611;-82
2022/07/17 02:01:41;;;;;;;3.13;1.40;;;;;;;11.50;65.35;101901.38;5012918;28;20295;-83
2022/07/17 02:04:07;;;;;;;6.27;1.57;;;;;;;11.47;65.72;101902.41;5015480;28;20227;-82
2022/07/17 02:06:34;;;;;;;6.30;1.30;;;;;;;11.46;65.74;101889.16;5011594;28;20211;-82
2022/07/17 02:09:00;;;;;;;4.47;1.33;;;;;;;11.43;66.06;101902.63;5010621;28;20195;-84
2022/07/17 02:11:27;;;;;;;2.30;1.10;;;;;;;11.40;66.11;101900.97;5015696;28;20607;-83
2022/07/17 02:13:55;;;;;;;3.37;1.33;;;;;;;11.37;66.09;101902.91;5014212;28;20237;-84
2022/07/17 02:16:21;;;;;;;3.43;1.43;;;;;;;11.32;66.34;101911.13;5013155;28;20210;-82
2022/07/17 02:18:48;;;;;;;3.90;2.03;;;;;;;11.27;66.71;101912.28;5014766;28;20202;-80
2022/07/17 02:21:14;;;;;;;3.80;1.50;;;;;;;11.23;66.99;101910.69;5013518;28;20702;-83
2022/07/17 02:23:41;;;;;;;3.17;1.63;;;;;;;11.18;67.58;101904.69;5012302;28;20224;-82
2022/07/17 02:26:08;;;;;;;4.67;1.83;;;;;;;11.13;67.43;101900.44;5006352;28;20207;-82
2022/07/17 02:28:35;;;;;;;4.03;1.30;;;;;;;11.07;67.87;101902.53;5010666;28;20217;-83
2022/07/17 02:31:03;;;;;;;3.53;1.40;;;;;;;11.01;67.85;101910.81;5012624;28;20211;-82
2022/07/17 02:33:30;;;;;;;4.13;1.77;;;;;;;10.94;68.49;101909.31;5006259;28;20713;-83
2022/07/17 02:35:56;;;;;;;4.37;1.37;;;;;;;10.89;69.21;101906.91;5013232;28;20203;-82
2022/07/17 02:38:23;;;;;;;3.57;1.17;;;;;;;10.89;69.19;101903.38;5013724;28;20658;-82
2022/07/17 02:40:50;;;;;;;2.47;1.30;;;;;;;10.87;69.47;101903.44;5013391;28;20211;-82
2022/07/17 02:43:17;;;;;;;2.60;1.50;;;;;;;10.87;69.86;101903.44;5012917;28;20310;-82
2022/07/17 02:45:44;;;;;;;4.70;1.43;;;;;;;10.89;69.73;101904.22;5011780;28;20214;-82
2022/07/17 02:48:12;;;;;;;2.53;1.40;;;;;;;10.90;70.18;101902.44;5009919;28;20209;-82
2022/07/17 02:50:38;;;;;;;8.00;1.60;;;;;;;10.91;69.69;101904.16;5020013;28;20299;-83
2022/07/17 02:53:05;;;;;;;6.53;1.80;;;;;;;10.91;70.28;101905.03;5012305;28;20218;-83
2022/07/17 02:55:31;;;;;;;3.13;1.83;;;;;;;10.91;70.61;101909.50;5012247;28;20238;-82
2022/07/17 02:57:58;;;;;;;3.63;1.27;;;;;;;10.92;70.21;101911.22;5010780;28;20230;-82
2022/07/17 03:00:26;;;;;;;4.37;1.73;;;;;;;10.91;70.57;101910.34;5016904;28;20202;-83
2022/07/17 03:02:55;;;;;;;4.20;1.40;;;;;;;10.89;70.72;101906.91;5002555;28;20573;-83
2022/07/17 03:05:23;;;;;;;3.07;1.40;;;;;;;10.87;70.18;101906.09;5016503;28;20338;-83
2022/07/17 03:07:50;;;;;;;2.53;1.60;;;;;;;10.83;70.21;101915.16;5005363;28;20207;-83
2022/07/17 03:10:17;;;;;;;3.30;1.50;;;;;;;10.78;70.63;101912.69;5012530;28;20210;-84
2022/07/17 03:12:43;;;;;;;7.10;4.80;;;;;;;10.75;70.53;101911.94;5013842;28;20228;-82
2022/07/17 03:15:11;;;;;;;4.80;3.40;;;;;;;10.71;70.38;101913.03;5016792;28;20233;-83
2022/07/17 03:17:39;;;;;;;5.60;3.50;;;;;;;10.67;70.23;101916.75;5012941;28;20205;-81
2022/07/17 03:20:07;;;;;;;7.50;3.23;;;;;;;10.63;70.82;101925.81;5015827;28;20210;-81
2022/07/17 03:22:35;;;;;;;3.63;2.23;;;;;;;10.59;71.01;101926.88;5017341;28;20234;-82
2022/07/17 03:25:01;;;;;;;2.30;1.77;;;;;;;10.57;71.09;101926.94;5024912;28;20214;-82
2022/07/17 03:27:28;;;;;;;6.03;2.00;;;;;;;10.58;71.18;101933.13;5014340;28;20211;-83
2022/07/17 03:29:55;;;;;;;6.93;1.70;;;;;;;10.56;71.49;101930.56;5013012;28;20753;-83
2022/07/17 03:32:22;;;;;;;4.43;1.77;;;;;;;10.55;72.11;101935.94;5011902;28;20238;-82
2022/07/17 03:34:48;;;;;;;7.03;2.47;;;;;;;10.55;72.33;101934.16;5008617;28;20222;-82
2022/07/17 03:37:15;;;;;;;5.47;2.47;;;;;;;10.56;72.41;101940.34;5011599;28;20210;-81
2022/07/17 03:39:44;;;;;;;4.93;2.00;;;;;;;10.53;71.98;101945.81;5012795;28;20662;-81
2022/07/17 03:42:10;;;;;;;3.53;1.90;;;;;;;10.50;71.96;101957.44;5012094;28;20685;-82
2022/07/17 03:44:37;;;;;;;3.80;1.90;;;;;;;10.48;72.04;101948.66;5001499;28;20687;-83
2022/07/17 03:47:03;;;;;;;3.87;2.00;;;;;;;10.47;72.24;101951.38;5016839;28;20233;-83
2022/07/17 03:49:30;;;;;;;4.10;2.13;;;;;;;10.47;72.59;101943.38;5004067;28;20211;-83
2022/07/17 03:51:56;;;;;;;4.00;1.83;;;;;;;10.46;72.68;101945.19;5009435;28;20203;-83
2022/07/17 03:54:23;;;;;;;5.53;2.67;;;;;;;10.47;72.49;101954.03;5003283;28;20237;-83
2022/07/17 03:56:51;;;;;;;4.67;1.70;;;;;;;10.44;72.30;101958.56;5008094;28;20204;-82
2022/07/17 03:59:17;;;;;;;3.07;1.63;;;;;;;10.43;72.00;101961.28;5011999;28;20221;-82
2022/07/17 04:01:44;;;;;;;3.70;1.60;;;;;;;10.43;72.13;101967.47;5018617;28;20214;-82
2022/07/17 04:04:10;;;;;;;4.13;1.80;;;;;;;10.43;72.36;101970.16;5011478;28;20223;-82
2022/07/17 04:06:37;;;;;;;1.97;1.77;;;;;;;10.41;72.58;101963.16;5018283;28;20211;-81
2022/07/17 04:09:04;;;;;;;3.13;1.60;;;;;;;10.39;72.06;101971.19;5011829;28;20207;-82
2022/07/17 04:11:31;;;;;;;3.90;1.73;;;;;;;10.33;71.88;101960.81;5008071;28;20203;-83
2022/07/17 04:13:58;;;;;;;4.63;2.47;;;;;;;10.29;72.84;101961.00;5010146;28;20237;-81
2022/07/17 04:16:25;;;;;;;4.80;1.70;;;;;;;10.26;72.99;101966.44;5017026;28;20732;-81
2022/07/17 04:18:53;;;;;;;2.70;1.53;;;;;;;10.25;73.00;101972.69;5011485;28;20217;-81
2022/07/17 04:21:19;;;;;;;4.63;1.77;;;;;;;10.25;73.29;101978.03;5011354;28;20238;-82
2022/07/17 04:23:46;;;;;;;4.40;2.03;;;;;;;10.25;74.16;101976.22;5011142;28;20603;-83
2022/07/17 04:26:12;;;;;;;3.17;1.47;;;;;;;10.28;73.85;101977.91;5012324;28;20218;-83
2022/07/17 04:28:39;;;;;;;3.70;1.60;;;;;;;10.32;74.48;101974.19;5019047;28;20868;-81
2022/07/17 04:31:07;;;;;;;4.10;1.70;;;;;;;10.35;74.99;101969.63;5008719;28;20199;-83
2022/07/17 04:33:34;;;;;;;4.73;1.97;;;;;;;10.40;74.96;101964.94;5004497;28;20232;-82
2022/07/17 04:36:00;;;;;;;4.07;1.60;;;;;;;10.46;75.10;101954.97;5004302;28;20225;-82
2022/07/17 04:38:27;;;;;;;2.40;1.50;;;;;;;10.53;75.05;101945.81;5012283;28;20215;-81
2022/07/17 04:40:53;;;;;;;5.23;1.80;;;;;;;10.57;75.51;101944.75;5014032;28;20210;-83
2022/07/17 04:43:20;;;;;;;3.47;1.80;;;;;;;10.63;76.18;101941.78;5006432;28;20227;-83
2022/07/17 04:45:47;;;;;;;4.07;2.07;;;;;;;10.69;76.24;101938.88;5012483;28;20206;-82
2022/07/17 04:48:14;;;;;;;5.07;1.97;;;;;;;10.75;76.49;101930.59;5018075;28;20217;-82
2022/07/17 04:50:41;;;;;;;2.73;1.30;;;;;;;10.83;77.07;101924.94;5010925;28;20689;-82
2022/07/17 04:53:08;;;;;;;5.53;2.00;;;;;;;10.89;77.05;101930.88;5009360;28;20729;-81
2022/07/17 04:55:35;;;;;;;7.57;2.40;;;;;;;10.94;77.40;101947.50;5017332;28;20232;-82
2022/07/17 04:58:01;;;;;;;2.93;2.00;;;;;;;11.02;77.87;101953.38;5021867;28;20314;-82
2022/07/17 05:00:28;;;;;;;3.40;1.87;;;;;;;11.11;78.20;101958.28;5011598;28;20218;-82
2022/07/17 05:02:54;;;;;;;6.43;1.80;;;;;;;11.20;78.58;101965.03;5018307;28;20222;-83
2022/07/17 05:05:22;;;;;;;7.83;1.80;;;;;;;11.27;78.41;101978.97;5013902;28;20199;-82
2022/07/17 05:07:49;;;;;;;4.47;1.83;;;;;;;11.33;78.69;101986.66;5005622;28;20700;-82
2022/07/17 05:10:15;;;;;;;6.70;2.00;;;;;;;11.42;79.01;102004.94;5014618;28;20210;-82
2022/07/17 05:12:42;;;;;;;3.13;1.90;;;;;;;11.51;79.33;102017.84;5013567;28;20234;-82
2022/07/17 05:15:09;;;;;;;3.87;1.30;;;;;;;11.58;79.13;101997.97;5017324;28;20219;-82
2022/07/17 05:17:35;;;;;;;4.83;1.57;;;;;;;11.67;79.20;101997.53;5012397;28;20208;-83
2022/07/17 05:20:02;;;;;;;4.90;1.67;;;;;;;11.77;79.08;101996.22;5025264;28;20210;-83
2022/07/17 05:22:30;;;;;;;5.07;1.73;;;;;;;11.88;78.97;102001.03;5017305;28;20239;-83
2022/07/17 05:24:56;;;;;;;5.77;2.30;;;;;;;11.99;78.79;101993.41;5016853;28;20195;-84
2022/07/17 05:27:23;;;;;;;4.07;1.67;;;;;;;12.11;78.63;101986.59;5016742;28;20214;-83
2022/07/17 05:29:49;;;;;;;3.97;1.80;;;;;;;12.21;78.18;101987.84;5016627;28;20211;-83
2022/07/17 05:32:16;;;;;;;4.77;2.10;;;;;;;12.28;77.54;101986.63;5016489;28;20415;-84
2022/07/17 05:34:43;;;;;;;6.13;1.80;;;;;;;12.34;76.92;101966.75;5021818;28;20255;-84
2022/07/17 05:37:09;;;;;;;5.53;1.60;;;;;;;12.41;76.16;101968.16;5016307;28;20207;-84
2022/07/17 05:39:38;;;;;;;5.83;1.30;;;;;;;12.49;75.86;101966.00;5015442;28;20206;-84
2022/07/17 05:42:05;;;;;;;7.00;1.40;;;;;;;12.57;75.43;101961.09;5017576;28;20211;-85
2022/07/17 05:44:31;;;;;;;4.73;1.80;;;;;;;12.65;75.03;101960.72;5024861;28;20271;-82
2022/07/17 05:46:58;;;;;;;5.43;1.50;;;;;;;12.74;74.46;101957.56;5021531;28;20228;-83
2022/07/17 05:49:24;;;;;;;5.60;1.50;;;;;;;12.82;73.98;101966.94;5013502;28;20204;-83
2022/07/17 05:51:51;;;;;;;5.50;1.17;;;;;;;12.90;73.85;101973.72;5018420;28;20217;-84
2022/07/17 05:54:18;;;;;;;6.90;1.53;;;;;;;12.99;73.13;101974.09;5023532;28;20628;-85
2022/07/17 05:56:45;;;;;;;11.27;1.70;;;;;;;13.07;72.66;101963.00;5011803;28;20203;-82
2022/07/17 05:59:12;;;;;;;2.63;1.20;;;;;;;13.15;72.61;101967.00;5016059;28;20213;-83
2022/07/17 06:01:39;;;;;;;5.17;1.20;;;;;;;13.23;72.12;101966.63;5012742;28;20214;-84
2022/07/17 06:04:05;;;;;;;4.33;1.50;;;;;;;13.32;71.89;101966.09;5021104;28;20219;-84
2022/07/17 06:06:32;;;;;;;4.93;1.30;;;;;;;13.41;71.36;101964.75;5014421;28;20214;-84
2022/07/17 06:08:58;;;;;;;5.77;1.30;;;;;;;13.48;71.31;101969.66;5016780;28;20207;-83
2022/07/17 06:11:25;;;;;;;6.83;1.10;;;;;;;13.57;70.50;101959.44;5016508;28;20207;-83
2022/07/17 06:13:53;;;;;;;5.57;1.53;;;;;;;13.65;69.97;101960.72;5016243;28;20223;-84
2022/07/17 06:16:19;;;;;;;5.33;1.50;;;;;;;13.72;69.80;101963.94;5014916;28;20223;-82
2022/07/17 06:18:46;;;;;;;3.40;1.10;;;;;;;13.80;69.60;101975.06;5012908;28;20206;-82
2022/07/17 06:21:12;;;;;;;5.47;1.20;;;;;;;13.88;69.32;101984.41;5012776;28;20669;-82
2022/07/17 06:23:39;;;;;;;3.40;1.30;;;;;;;13.97;68.84;101977.69;5010826;28;20230;-83
2022/07/17 06:26:06;;;;;;;3.50;1.20;;;;;;;14.04;68.10;101984.41;5012559;28;20584;-82
2022/07/17 06:28:32;;;;;;;6.83;1.30;;;;;;;14.11;67.68;101982.25;5012230;28;20992;-81
2022/07/17 06:31:00;;;;;;;4.67;1.50;;;;;;;14.19;68.26;101990.69;5011242;28;20210;-82
2022/07/17 06:33:27;;;;;;;5.50;1.60;;;;;;;14.25;67.64;101982.31;5012745;28;20231;-83
2022/07/17 06:35:54;;;;;;;7.03;1.63;;;;;;;14.32;67.32;101994.44;5007336;28;20225;-81
2022/07/17 06:38:20;;;;;;;3.77;1.30;;;;;;;14.40;67.02;101985.91;5011294;28;20215;-83
2022/07/17 06:40:47;;;;;;;4.23;1.17;;;;;;;14.49;67.06;101991.66;5012035;28;20214;-83
2022/07/17 06:43:13;;;;;;;4.60;1.57;;;;;;;14.66;67.26;101989.81;5012219;28;20230;-82
2022/07/17 06:45:40;;;;;;;3.63;1.47;;;;;;;14.85;67.33;101985.94;5012246;28;20210;-82
2022/07/17 06:48:08;;;;;;;4.33;1.60;;;;;;;15.02;66.58;101984.91;5011800;28;20566;-82
2022/07/17 06:50:35;;;;;;;3.83;0.93;;;;;;;15.19;65.77;101989.25;5016779;28;20305;-83
2022/07/17 06:53:02;;;;;;;5.53;1.10;;;;;;;15.34;65.17;101982.06;5015290;28;20223;-82
2022/07/17 06:55:28;;;;;;;7.10;1.37;;;;;;;15.51;64.56;101981.88;5011477;28;20239;-82
2022/07/17 06:57:55;;;;;;;6.10;1.40;;;;;;;15.69;63.39;101974.50;5013592;28;20299;-82
2022/07/17 07:00:21;;;;;;;6.13;1.30;;;;;;;15.87;62.75;101984.09;5011540;28;20564;-83
2022/07/17 07:02:48;;;;;;;5.30;1.30;;;;;;;16.04;62.00;101983.84;5011889;28;20228;-83
2022/07/17 07:05:16;;;;;;;6.17;1.27;;;;;;;16.26;61.19;101986.00;5013087;28;20218;-83
2022/07/17 07:07:42;;;;;;;4.03;1.07;;;;;;;16.47;60.43;101981.03;5011674;28;20217;-83
2022/07/17 07:10:09;;;;;;;3.30;1.30;;;;;;;16.64;59.56;101992.41;5014328;28;20212;-84
2022/07/17 07:12:36;;;;;;;5.07;1.40;;;;;;;16.79;58.40;101990.50;5014772;28;20696;-84
2022/07/17 07:15:02;;;;;;;5.13;1.20;;;;;;;16.90;57.29;101984.38;5011740;28;20240;-82
2022/07/17 07:17:31;;;;;;;5.57;1.43;;;;;;;17.04;56.77;101989.66;5014362;28;20213;-83
2022/07/17 07:19:58;;;;;;;5.20;0.93;;;;;;;17.16;55.83;101988.81;5011802;28;20260;-83
2022/07/17 07:22:25;;;;;;;5.77;1.17;;;;;;;17.29;55.24;101996.91;5010637;28;20230;-83
2022/07/17 07:24:52;;;;;;;2.67;0.93;;;;;;;17.41;54.77;101987.09;5011773;28;20212;-82
2022/07/17 07:27:19;;;;;;;3.70;1.10;;;;;;;17.53;54.59;101991.63;5010470;28;20214;-82
2022/07/17 07:29:45;;;;;;;3.73;1.07;;;;;;;17.65;54.26;101993.47;5005709;28;20320;-83
2022/07/17 07:32:12;;;;;;;3.80;1.63;;;;;;;17.74;53.11;101984.69;5012041;28;20220;-83
2022/07/17 07:34:38;;;;;;;5.13;1.47;;;;;;;17.79;52.73;101978.97;5010870;28;20210;-83
2022/07/17 07:37:05;;;;;;;5.60;1.13;;;;;;;17.88;52.48;101978.34;5004923;28;20230;-82
2022/07/17 07:39:32;;;;;;;2.60;1.00;;;;;;;17.95;51.53;101985.84;5009638;28;20571;-82
2022/07/17 07:41:59;;;;;;;4.50;0.93;;;;;;;18.08;51.41;101977.72;5010091;28;20200;-83
2022/07/17 07:44:27;;;;;;;3.83;1.10;;;;;;;18.22;50.83;101976.69;5009295;28;20337;-83
2022/07/17 07:46:53;;;;;;;3.27;1.23;;;;;;;18.34;49.95;101979.34;5011013;28;20253;-83
2022/07/17 07:49:20;;;;;;;4.03;1.23;;;;;;;18.48;49.68;101983.69;5010836;28;20215;-83
2022/07/17 07:51:46;;;;;;;4.80;1.60;;;;;;;18.60;49.04;101979.25;5010515;28;20201;-84
2022/07/17 07:54:13;;;;;;;3.77;1.13;;;;;;;18.73;48.99;101969.22;5004831;28;20234;-83
2022/07/17 07:56:41;;;;;;;2.60;0.90;;;;;;;18.88;48.62;101978.84;5010001;28;20241;-84
2022/07/17 07:59:07;;;;;;;3.90;1.00;;;;;;;19.04;48.69;101986.59;5010693;28;20215;-84
2022/07/17 08:01:34;;;;;;;3.87;1.20;;;;;;;19.21;47.60;101980.75;5011113;28;20217;-83
2022/07/17 08:04:00;;;;;;;3.83;1.10;;;;;;;19.32;47.55;101985.31;5013108;28;20316;-85
2022/07/17 08:06:27;;;;;;;5.10;1.10;;;;;;;19.40;47.04;101993.66;5013255;28;20602;-84
2022/07/17 08:08:53;;;;;;;2.13;1.00;;;;;;;19.43;47.17;101982.63;5012667;28;20562;-84
2022/07/17 08:11:20;;;;;;;2.50;0.90;;;;;;;19.47;47.25;101994.91;5020432;28;20227;-84
2022/07/17 08:13:48;;;;;;;3.63;1.13;;;;;;;19.50;47.02;101988.44;5013698;28;20860;-85
2022/07/17 08:16:15;;;;;;;3.07;0.90;;;;;;;19.55;46.89;101984.38;5011012;28;20241;-84
2022/07/17 08:18:41;;;;;;;4.83;0.93;;;;;;;19.70;47.59;101985.88;5009941;28;20200;-85
2022/07/17 08:21:08;;;;;;;4.13;1.20;;;;;;;19.90;46.83;101986.91;5013400;28;20683;-84
2022/07/17 08:23:34;;;;;;;5.27;1.20;;;;;;;20.02;46.46;101985.94;5013783;28;20599;-84
2022/07/17 08:26:01;;;;;;;2.80;0.80;;;;;;;20.12;45.78;101994.16;5017982;28;20192;-85
2022/07/17 08:28:27;;;;;;;5.17;1.30;;;;;;;20.11;45.08;101985.16;5016331;28;20233;-85
2022/07/17 08:30:55;;;;;;;2.73;1.00;;;;;;;20.10;44.80;101991.56;5013192;28;20206;-85
2022/07/17 08:33:21;;;;;;;3.83;1.10;;;;;;;20.18;45.05;101981.97;5018133;28;20236;-84
2022/07/17 08:35:48;;;;;;;2.77;1.17;;;;;;;20.28;45.02;101993.72;5016277;28;20230;-85
2022/07/17 08:38:14;;;;;;;3.83;0.93;;;;;;;20.33;44.33;101986.09;5014070;28;20214;-83
2022/07/17 08:40:43;;;;;;;3.83;1.10;;;;;;;20.33;43.87;101991.50;5014667;28;20210;-84
2022/07/17 08:43:10;;;;;;;4.00;0.97;;;;;;;20.34;44.19;101990.53;5016214;28;20823;-84
2022/07/17 08:45:39;;;;;;;3.80;1.10;;;;;;;20.45;44.10;102001.34;5016229;28;20215;-85
2022/07/17 08:48:12;;;;;;;3.33;1.13;;;;;;;20.58;43.88;101999.34;5014992;28;20215;-84
2022/07/17 08:50:39;;;;;;;1.40;0.87;;;;;;;20.69;43.28;102002.00;5013463;28;20204;-84
2022/07/17 08:53:05;;;;;;;5.00;1.10;;;;;;;20.75;43.29;102004.19;5010670;28;20233;-83
2022/07/17 08:55:33;;;;;;;4.45;0.98;;;;;;;20.86;43.25;102007.81;5015323;28;20603;-84
2022/07/17 08:57:59;;;;;;;3.55;0.90;;;;;;;20.99;42.70;102012.03;5015227;28;20210;-85
2022/07/17 09:00:27;;;;;;;2.73;0.90;;;;;;;21.11;42.53;102007.44;5010249;28;20210;-85
2022/07/17 09:02:56;;;;;;;3.67;0.85;;;;;;;21.21;42.09;102010.22;5018482;28;20225;-84
2022/07/17 09:05:25;;;;;;;3.75;1.30;;;;;;;21.31;42.34;102000.31;5015312;28;20215;-85
2022/07/17 09:07:52;;;;;;;4.78;1.02;;;;;;;21.43;41.89;102001.94;5017229;28;20273;-85
2022/07/17 09:10:18;;;;;;;4.47;1.10;;;;;;;21.52;41.18;102000.25;5015962;28;20226;-85
2022/07/17 09:12:45;;;;;;;2.67;0.85;;;;;;;21.55;40.70;102003.56;5011663;28;20231;-85
2022/07/17 09:15:17;;;;;;;3.00;1.05;;;;;;;21.62;40.97;102002.03;5016059;28;20604;-85
2022/07/17 09:17:49;;;;;;;2.72;1.00;;;;;;;21.68;41.05;102001.47;5014016;28;20211;-84
2022/07/17 09:20:16;;;;;;;2.15;0.73;;;;;;;21.73;40.59;101990.22;5020539;28;20213;-84
2022/07/17 09:22:44;;;;;;;4.22;0.80;;;;;;;21.87;40.59;101978.13;5015062;28;20223;-84
2022/07/17 09:25:11;;;;;;;5.95;1.35;;;;;;;21.93;40.08;101989.31;5004774;28;20210;-84
2022/07/17 09:27:38;;;;;;;1.92;0.95;;;;;;;22.00;39.72;101986.94;5014362;28;20209;-85
2022/07/17 09:30:06;;;;;;;4.00;1.10;;;;;;;22.01;39.16;101983.25;5014191;28;20580;-83
2022/07/17 09:32:36;;;;;;;2.40;1.30;;;;;;;22.06;39.74;101986.38;5013782;28;20922;-84
2022/07/17 09:35:04;;;;;;;3.63;1.00;;;;;;;22.17;39.58;101984.41;5008402;28;20203;-84
2022/07/17 09:37:32;;;;;;;2.55;1.05;;;;;;;22.31;39.31;101993.13;5006828;28;20241;-85
2022/07/17 09:40:01;;;;;;;3.92;0.80;;;;;;;22.40;38.07;101990.41;5008552;28;20723;-84
2022/07/17 09:42:29;;;;;;;3.72;1.00;;;;;;;22.40;38.18;101990.41;5006669;28;20227;-85
2022/07/17 09:45:00;;;;;;;4.00;1.08;;;;;;;22.44;38.46;101981.00;5017439;28;20205;-85
2022/07/17 09:47:29;;;;;;;2.05;1.00;;;;;;;22.51;38.24;101987.59;5012628;28;20209;-85
2022/07/17 09:49:57;;;;;;;2.00;0.77;;;;;;;22.59;37.89;101986.00;5015593;28;20241;-82
2022/07/17 09:52:25;;;;;;;2.63;0.82;;;;;;;22.62;37.45;101981.16;5014880;28;20217;-85
2022/07/17 09:54:53;;;;;;;4.95;1.05;;;;;;;22.66;37.46;101984.44;5015441;28;20223;-85
2022/07/17 09:57:24;;;;;;;2.08;0.85;;;;;;;22.71;37.37;101974.88;5021556;28;20234;-83
2022/07/17 09:59:51;;;;;;;4.38;1.00;;;;;;;22.77;37.49;101981.59;5014203;28;20202;-85
2022/07/17 10:02:20;;;;;;;4.60;1.30;;;;;;;22.84;37.32;101980.03;5011355;28;20234;-85
2022/07/17 10:04:47;;;;;;;1.75;0.98;;;;;;;22.94;37.04;101970.00;5009830;28;20611;-84
2022/07/17 10:07:13;;;;;;;3.20;1.17;;;;;;;23.03;37.38;101971.00;5014011;28;20214;-85
2022/07/17 10:09:40;;;;;;;2.10;0.82;;;;;;;23.10;37.16;101980.28;5016230;28;20214;-85
2022/07/17 10:12:08;;;;;;;2.13;0.88;;;;;;;23.18;37.04;101983.13;5010180;28;20203;-84
2022/07/17 10:14:38;;;;;;;3.97;0.90;;;;;;;23.26;37.54;101979.69;5008784;28;20212;-84
2022/07/17 10:17:09;;;;;;;3.30;1.00;;;;;;;23.31;37.26;101980.94;5015174;28;20239;-84
2022/07/17 10:19:47;;;;;;;3.47;1.20;;;;;;;23.38;37.41;101976.63;5010447;28;20198;-84
2022/07/17 10:22:13;;;;;;;3.35;0.93;;;;;;;23.47;36.76;101986.59;5012227;28;20216;-84
2022/07/17 10:24:47;;;;;;;3.03;1.00;;;;;;;23.56;36.83;101978.59;5013986;28;20289;-85
2022/07/17 10:27:18;;;;;;;2.83;0.77;;;;;;;23.63;36.68;101979.72;4997374;28;20207;-82
2022/07/17 10:29:47;;;;;;;3.88;1.13;;;;;;;23.71;36.05;101987.97;5013198;28;20205;-85
2022/07/17 10:32:16;;;;;;;2.28;0.82;;;;;;;23.76;35.89;101989.25;5007889;28;20211;-84
2022/07/17 10:34:45;;;;;;;3.42;0.75;;;;;;;23.80;35.70;101977.06;5013462;28;20213;-84
2022/07/17 10:37:20;;;;;;;5.35;1.00;;;;;;;23.85;35.78;101968.41;5016072;28;20229;-84
2022/07/17 10:39:57;;;;;;;2.13;0.85;;;;;;;23.91;35.69;101972.41;5006047;28;20190;-85
2022/07/17 10:42:46;;;;;;;2.97;1.20;;;;;;;23.97;35.84;101969.94;5012775;28;20205;-84
2022/07/17 10:45:16;;;;;;;1.67;0.80;;;;;;;24.05;35.28;101970.03;5008048;28;20210;-85
2022/07/17 10:47:48;;;;;;;1.58;0.90;;;;;;;24.11;34.52;101974.00;5008703;28;20206;-83
2022/07/17 10:50:15;;;;;;;2.30;0.93;;;;;;;24.05;34.37;101970.03;5013012;28;20207;-85
2022/07/17 10:52:42;;;;;;;3.08;1.10;;;;;;;24.04;34.57;101972.91;5004007;28;20674;-85
2022/07/17 10:55:20;;;;;;;1.52;0.85;;;;;;;24.06;34.79;101965.44;5008869;28;20207;-85
2022/07/17 10:57:47;;;;;;;2.88;1.00;;;;;;;24.07;34.89;101967.16;5012695;28;20214;-84
2022/07/17 11:00:17;;;;;;;1.80;0.80;;;;;;;24.05;34.69;101969.16;5014825;28;20213;-85
2022/07/17 11:02:44;;;;;;;3.55;0.95;;;;;;;24.03;34.54;101966.59;5012661;28;20689;-84
2022/07/17 11:05:11;;;;;;;2.15;1.05;;;;;;;24.06;34.77;101969.03;5006740;28;20792;-85
2022/07/17 11:07:49;;;;;;;1.98;0.77;;;;;;;24.14;35.08;101968.25;5008446;28;20214;-85
2022/07/17 11:10:17;;;;;;;2.30;0.73;;;;;;;24.19;34.42;101964.06;5006759;28;20262;-86
2022/07/17 11:12:43;;;;;;;3.38;1.00;;;;;;;24.18;33.93;101965.06;5004017;28;20244;-84
2022/07/17 11:15:10;;;;;;;2.30;0.90;;;;;;;24.19;33.93;101961.34;5003117;28;20206;-85
2022/07/17 11:17:38;;;;;;;3.13;0.93;;;;;;;24.21;34.08;101962.03;5007279;28;20233;-85
2022/07/17 11:20:05;;;;;;;3.78;0.90;;;;;;;24.21;34.52;101955.72;5010068;28;20211;-85
2022/07/17 11:22:32;;;;;;;3.15;1.20;;;;;;;24.25;34.72;101959.91;5014444;28;20222;-85
2022/07/17 11:24:59;;;;;;;2.78;1.00;;;;;;;24.30;33.70;101956.72;5013850;28;20210;-83
2022/07/17 11:27:26;;;;;;;2.65;0.68;;;;;;;24.37;33.75;101950.47;5013961;28;20206;-85